Aviation Digital Data Service (ADDS)

Output produced by METARs form (1823 UTC 22 November 2017)
found at http://www.aviationweather.gov/adds/metars/
 
TAF SYCJ 221606Z 2218/2318 VRB06KT 8000 TS SHRA FEW015CB BKN016 BKN036 
     BECMG 2301/2303 00000KT 9999 SCT016
       
TAF SYKM 221100Z 2212/2223 06010KT 6000 TSRA FEW014CB BKN015 BKN080 
       
TAF SYLT 221100Z 2212/2223 06010KT 9999 FEW017CB SCT018